Estación Meteorológica Peña el Pijo (Robertgarden) [ 03/26/19 14:53:42 CET ]

Fecha Hora Presion(HPa) Temp (°C) Humedad % Rocio (°C) Viento ( m/s) Direccion Lluvia 1Hora(mm) Lluvia 24H(mm) LLuvia Total(mm)
2019-Jan-22 01:01:56 1007.700 -2.5 79 -5.7         163.68
2019-Jan-22 02:05:06 1007.000 -3.5 80 -6.4         163.68
2019-Jan-22 03:01:54 1006.700 -2.9 81 -5.7         163.68
2019-Jan-22 04:01:54 1006.400 -2.7 82 -5.4         163.68
2019-Jan-22 05:01:43 1006.000 -3.2 82 -5.9         163.68
2019-Jan-22 06:01:40 1005.800 -4.4 83 -6.8         163.68
2019-Jan-22 07:01:41 1005.500 -4.4 83 -6.8         163.68
2019-Jan-22 08:01:39 1005.300 -4.4 83 -6.8         163.68
2019-Jan-22 09:01:54 1005.300 -4.1 83 -6.6         163.68
2019-Jan-22 10:01:55 1004.800 -1.6 85 -3.8         163.68
2019-Jan-22 11:01:42 1004.600 3.6 80 0.5         163.68
2019-Jan-22 12:01:51 1004.100 5.3 64 -1.0         163.68
2019-Jan-22 13:01:51 1003.500 5.9 58 -1.8 2.9 N     163.68
2019-Jan-22 14:01:45 1002.600 6.0 58 -1.7 3.3 NW     163.68
2019-Jan-22 15:01:50 1001.900 5.4 60 -1.7         163.68
2019-Jan-22 16:01:54 1001.400 4.9 60 -2.2 1.7 N     163.68
2019-Jan-22 17:01:48 1001.800 4.3 63 -2.2 1.3 WNW     163.68
2019-Jan-22 18:01:44 1001.200 3.9 64 -2.3         163.68
2019-Jan-22 19:01:43 1001.100 3.1 69 -2.0         163.68
2019-Jan-22 20:01:53 1000.900 2.7 74 -1.5         163.68
2019-Jan-22 21:01:55 1001.000 2.5 78 -1.0         163.68
2019-Jan-22 22:01:50 1000.200 2.1 81 -0.8         163.68
2019-Jan-22 23:01:52 999.800 2.4 84 -0.1     1.03 1.03 164.72

Temperatura Máxima:    Temperatura Mínima:-4°
Presión Máxima:1007.700 Hpa    Presión Mínima:999.800 Hpa


Volver